Time;durP1;ratioP1;P1;durP2;ratioP2;P2;SDS_P1;SDS_P2;PMS_P1;PMS_P2;Temp;Humidity;BMP_temperature;BMP_pressure;BME280_temperature;BME280_humidity;BME280_pressure;Samples;Min_cycle;Max_cycle;Signal;HPM_P1;HPM_P2
2023/02/01 00:01:49;;;;;;;12.68;3.05;;;;;;;6.78;100.00;101687.16;5047980;28;20561;-72
2023/02/01 00:04:14;;;;;;;14.65;3.20;;;;;;;6.71;100.00;101694.72;5055925;28;20025;-72
2023/02/01 00:06:39;;;;;;;15.00;2.65;;;;;;;6.72;100.00;101693.91;5045599;28;20045;-73
2023/02/01 00:09:05;;;;;;;18.85;2.85;;;;;;;6.74;100.00;101688.75;5050935;28;20104;-71
2023/02/01 00:11:30;;;;;;;17.33;2.00;;;;;;;6.69;100.00;101678.06;5048684;28;20029;-73
2023/02/01 00:13:56;;;;;;;15.90;2.42;;;;;;;6.72;100.00;101680.81;5050953;28;20052;-73
2023/02/01 00:16:24;;;;;;;13.90;2.13;;;;;;;6.63;100.00;101687.34;5044985;28;20025;-72
2023/02/01 00:18:52;;;;;;;23.92;2.83;;;;;;;6.58;100.00;101679.31;5050026;28;20028;-73
2023/02/01 00:21:19;;;;;;;21.63;3.72;;;;;;;6.58;100.00;101692.38;5037317;28;20064;-72
2023/02/01 00:23:45;;;;;;;19.90;2.78;;;;;;;6.58;100.00;101701.13;5058060;28;20374;-73
2023/02/01 00:26:16;;;;;;;19.30;2.75;;;;;;;6.69;100.00;101688.53;5051473;28;20036;-72
2023/02/01 00:28:42;;;;;;;11.50;2.45;;;;;;;6.60;100.00;101677.66;5060725;28;20028;-72
2023/02/01 00:31:07;;;;;;;15.15;2.70;;;;;;;6.58;100.00;101674.09;5041881;28;20059;-73
2023/02/01 00:33:33;;;;;;;15.60;3.22;;;;;;;6.68;100.00;101681.50;5043939;28;20041;-72
2023/02/01 00:36:05;;;;;;;16.83;2.53;;;;;;;6.66;100.00;101674.41;5056696;28;20059;-72
2023/02/01 00:38:32;;;;;;;22.52;3.40;;;;;;;6.69;100.00;101671.97;5061551;28;20028;-73
2023/02/01 00:41:11;;;;;;;23.00;2.97;;;;;;;6.63;100.00;101677.78;5040209;28;20044;-72
2023/02/01 00:43:36;;;;;;;28.05;3.30;;;;;;;6.65;100.00;101681.38;5051063;28;20554;-72
2023/02/01 00:46:02;;;;;;;17.40;3.00;;;;;;;6.63;100.00;101683.00;5056565;28;20029;-73
2023/02/01 00:48:28;;;;;;;23.48;4.25;;;;;;;6.69;100.00;101669.34;5051447;28;20075;-73
2023/02/01 00:50:53;;;;;;;20.65;2.97;;;;;;;6.62;100.00;101670.78;5052119;28;20108;-72
2023/02/01 00:53:19;;;;;;;15.48;3.50;;;;;;;6.62;100.00;101669.88;5052805;28;20074;-72
2023/02/01 00:55:46;;;;;;;20.38;3.20;;;;;;;6.68;100.00;101655.34;5054045;28;20377;-72
2023/02/01 00:58:11;;;;;;;21.23;3.28;;;;;;;6.75;100.00;101661.75;5069437;28;20046;-73
2023/02/01 01:00:37;;;;;;;15.13;3.25;;;;;;;6.78;100.00;101650.53;5061362;28;20101;-73
2023/02/01 01:03:02;;;;;;;21.30;2.60;;;;;;;6.75;100.00;101651.31;5050969;28;20033;-72
2023/02/01 01:05:33;;;;;;;23.50;3.40;;;;;;;6.84;100.00;101654.34;5049299;28;20382;-72
2023/02/01 01:07:59;;;;;;;23.35;3.38;;;;;;;6.84;100.00;101656.94;5054485;28;20123;-73
2023/02/01 01:10:24;;;;;;;14.23;2.50;;;;;;;6.79;100.00;101668.03;5054620;28;20103;-73
2023/02/01 01:12:50;;;;;;;26.42;3.58;;;;;;;6.82;100.00;101660.31;5063923;28;20147;-73
2023/02/01 01:15:17;;;;;;;23.00;2.92;;;;;;;6.86;100.00;101655.31;5062531;28;20119;-72
2023/02/01 01:17:42;;;;;;;17.67;2.30;;;;;;;6.86;100.00;101659.63;5059755;28;20021;-73
2023/02/01 01:20:08;;;;;;;16.23;3.75;;;;;;;6.85;100.00;101647.38;5042833;28;20057;-73
2023/02/01 01:22:34;;;;;;;24.80;3.67;;;;;;;6.75;100.00;101652.22;5055100;28;20027;-72
2023/02/01 01:24:59;;;;;;;12.98;2.88;;;;;;;6.80;100.00;101659.38;5053374;28;20119;-73
2023/02/01 01:27:24;;;;;;;18.05;3.15;;;;;;;6.76;100.00;101660.94;5053417;28;20017;-72
2023/02/01 01:29:50;;;;;;;24.40;3.35;;;;;;;6.78;100.00;101666.25;5049238;28;20113;-73
2023/02/01 01:32:15;;;;;;;17.27;2.60;;;;;;;6.79;100.00;101662.81;5047503;28;20049;-72
2023/02/01 01:34:41;;;;;;;20.25;2.88;;;;;;;6.84;100.00;101666.53;5053561;28;20106;-72
2023/02/01 01:37:06;;;;;;;20.83;3.17;;;;;;;6.84;100.00;101656.94;5052612;28;20082;-74
2023/02/01 01:39:31;;;;;;;22.90;3.25;;;;;;;6.81;100.00;101664.66;5052933;28;20037;-72
2023/02/01 01:41:57;;;;;;;26.42;3.45;;;;;;;6.80;100.00;101675.94;5048674;28;20026;-73
2023/02/01 01:45:01;;;;;;;20.15;2.67;;;;;;;6.79;100.00;101673.28;5043341;28;20029;-72
2023/02/01 01:47:33;;;;;;;18.02;3.50;;;;;;;6.80;100.00;101665.50;5060810;28;20480;-73
2023/02/01 01:49:59;;;;;;;21.83;3.15;;;;;;;6.71;100.00;101654.59;5047501;28;20402;-72
2023/02/01 01:52:24;;;;;;;26.23;3.28;;;;;;;6.68;100.00;101644.91;5044303;28;20029;-72
2023/02/01 01:54:52;;;;;;;19.50;2.95;;;;;;;6.73;100.00;101638.16;5061747;28;20123;-72
2023/02/01 01:57:23;;;;;;;28.13;3.63;;;;;;;6.69;100.00;101659.78;5065298;28;20031;-72
2023/02/01 01:59:58;;;;;;;15.95;2.78;;;;;;;6.68;100.00;101660.59;5045186;28;20025;-73
2023/02/01 02:02:24;;;;;;;11.23;2.75;;;;;;;6.73;100.00;101653.84;5055752;28;20090;-72
2023/02/01 02:04:50;;;;;;;30.13;4.78;;;;;;;6.79;100.00;101653.22;5052559;28;20025;-73
2023/02/01 02:07:21;;;;;;;20.23;2.88;;;;;;;6.78;100.00;101655.78;5052490;28;20057;-72
2023/02/01 02:09:46;;;;;;;23.15;3.60;;;;;;;6.82;100.00;101650.75;5055373;28;20298;-72
2023/02/01 02:12:11;;;;;;;21.58;4.07;;;;;;;6.78;100.00;101625.28;5052741;28;20415;-73
2023/02/01 02:14:37;;;;;;;16.48;2.47;;;;;;;6.75;100.00;101623.44;5054756;28;20036;-73
2023/02/01 02:17:24;;;;;;;25.85;3.70;;;;;;;6.79;100.00;101628.81;5051769;28;20024;-73
2023/02/01 02:20:09;;;;;;;31.10;3.30;;;;;;;6.84;100.00;101632.53;5047147;28;20033;-72
2023/02/01 02:23:07;;;;;;;13.32;2.65;;;;;;;6.83;100.00;101633.34;5049121;28;20079;-73
2023/02/01 02:26:00;;;;;;;23.77;3.33;;;;;;;6.78;100.00;101627.88;5047085;28;20076;-73
2023/02/01 02:28:44;;;;;;;17.92;3.95;;;;;;;6.83;100.00;101629.00;5049088;28;20024;-72
2023/02/01 02:31:46;;;;;;;22.55;3.30;;;;;;;6.81;100.00;101629.75;5046200;28;20033;-73
2023/02/01 02:34:14;;;;;;;18.98;3.20;;;;;;;6.80;100.00;101627.97;5049377;28;20477;-73
2023/02/01 02:36:48;;;;;;;20.65;3.17;;;;;;;6.81;100.00;101634.97;5051582;28;20085;-73
2023/02/01 02:39:16;;;;;;;22.15;3.70;;;;;;;6.82;100.00;101640.28;5049720;28;20377;-73
2023/02/01 02:48:03;;;;;;;23.83;3.63;;;;;;;6.91;100.00;101621.50;5062027;28;20047;-72
2023/02/01 03:04:17;;;;;;;15.30;2.83;;;;;;;6.84;100.00;101599.41;5050629;28;20521;-72
2023/02/01 03:06:44;;;;;;;28.42;3.35;;;;;;;6.82;100.00;101584.47;5052863;28;20045;-73
2023/02/01 03:09:31;;;;;;;19.38;3.00;;;;;;;6.81;100.00;101583.56;5066861;28;20040;-73
2023/02/01 03:14:52;;;;;;;18.88;2.65;;;;;;;6.73;100.00;101593.69;5051092;28;20543;-72
2023/02/01 03:17:25;;;;;;;19.42;3.33;;;;;;;6.67;100.00;101597.75;5047395;28;20029;-72
2023/02/01 03:19:51;;;;;;;;;;;;;;;6.64;100.00;101593.28;5070237;28;20024;-72
2023/02/01 03:22:22;;;;;;;23.40;2.85;;;;;;;6.68;100.00;101597.81;5047402;28;20056;-72
2023/02/01 03:24:53;;;;;;;11.73;2.33;;;;;;;6.63;100.00;101594.09;5051486;28;20033;-74
2023/02/01 03:27:32;;;;;;;15.23;3.25;;;;;;;6.73;100.00;101591.06;5040835;28;20510;-72
2023/02/01 03:30:05;;;;;;;24.25;3.40;;;;;;;6.77;100.00;101596.44;5044733;28;20024;-72
2023/02/01 03:32:57;;;;;;;23.55;3.55;;;;;;;6.74;100.00;101592.88;5053487;28;20043;-72
2023/02/01 03:35:18;;;;;;;36.95;3.25;;;;;;;6.70;100.00;101596.19;5052343;28;20226;-73
2023/02/01 03:37:44;;;;;;;14.63;2.80;;;;;;;6.78;100.00;101595.63;5054471;28;20499;-72
2023/02/01 03:40:12;;;;;;;24.38;4.00;;;;;;;6.74;100.00;101585.03;5045230;28;20104;-72
2023/02/01 03:42:43;;;;;;;25.67;3.55;;;;;;;6.82;100.00;101579.22;5042734;28;20134;-72
2023/02/01 03:45:12;;;;;;;21.40;3.22;;;;;;;6.71;100.00;101584.00;5046860;28;20037;-72
2023/02/01 03:47:42;;;;;;;17.50;3.28;;;;;;;6.65;100.00;101571.53;5046295;28;20429;-73
2023/02/01 03:50:15;;;;;;;24.15;3.40;;;;;;;6.72;100.00;101586.66;5057414;28;20382;-73
2023/02/01 03:52:59;;;;;;;26.77;3.00;;;;;;;6.64;100.00;101589.78;5048073;28;20087;-71
2023/02/01 03:55:27;;;;;;;18.13;3.35;;;;;;;6.64;100.00;101595.88;5054740;28;20064;-73
2023/02/01 03:58:02;;;;;;;12.30;2.67;;;;;;;6.62;100.00;101610.63;5054840;28;20515;-72
2023/02/01 04:00:28;;;;;;;17.42;2.92;;;;;;;6.67;100.00;101598.63;5051160;28;20083;-72
2023/02/01 04:02:53;;;;;;;15.30;2.83;;;;;;;6.63;100.00;101601.94;5056168;28;20439;-73
2023/02/01 04:05:20;;;;;;;15.43;3.17;;;;;;;6.68;100.00;101607.41;5054498;28;20033;-72
2023/02/01 04:07:45;;;;;;;19.73;2.58;;;;;;;6.75;100.00;101588.53;5054761;28;20097;-72
2023/02/01 04:10:11;;;;;;;22.83;3.65;;;;;;;6.67;100.00;101596.03;5053235;28;20024;-73
2023/02/01 04:12:36;;;;;;;12.93;2.60;;;;;;;6.70;100.00;101601.41;5054645;28;20486;-73
2023/02/01 04:15:03;;;;;;;19.27;2.88;;;;;;;6.71;100.00;101617.97;5052790;28;20029;-73
2023/02/01 04:17:28;;;;;;;22.10;3.47;;;;;;;6.74;100.00;101619.03;5055106;28;20025;-73
2023/02/01 04:19:54;;;;;;;20.73;3.53;;;;;;;6.74;100.00;101599.81;5051844;28;20358;-73
2023/02/01 04:22:19;;;;;;;10.60;2.28;;;;;;;6.78;100.00;101582.53;5047762;28;20518;-73
2023/02/01 04:24:44;;;;;;;14.32;2.63;;;;;;;6.70;100.00;101596.19;5048348;28;20385;-73
2023/02/01 04:27:10;;;;;;;20.23;2.97;;;;;;;6.74;100.00;101592.88;5056770;28;20504;-72
2023/02/01 04:29:35;;;;;;;21.67;3.13;;;;;;;6.75;100.00;101588.53;5043743;28;20028;-71
2023/02/01 04:32:00;;;;;;;21.98;3.05;;;;;;;6.72;100.00;101589.28;5046398;28;20366;-73
2023/02/01 04:34:26;;;;;;;26.98;2.55;;;;;;;6.61;100.00;101598.38;5047108;28;20415;-73
2023/02/01 04:36:52;;;;;;;24.42;3.30;;;;;;;6.52;100.00;101596.22;5051645;28;20033;-73
2023/02/01 04:39:17;;;;;;;22.80;3.83;;;;;;;6.64;100.00;101590.66;5064131;28;20035;-73
2023/02/01 04:41:42;;;;;;;18.90;3.03;;;;;;;6.51;100.00;101589.22;5050515;28;20029;-72
2023/02/01 04:44:14;;;;;;;17.15;3.70;;;;;;;6.48;100.00;101588.19;5045824;28;20361;-72
2023/02/01 04:46:40;;;;;;;19.48;3.38;;;;;;;6.42;100.00;101580.97;5047478;28;20028;-73
2023/02/01 04:49:05;;;;;;;19.10;3.13;;;;;;;6.45;100.00;101577.59;5046145;28;20036;-73
2023/02/01 04:51:30;;;;;;;20.42;3.50;;;;;;;6.47;100.00;101575.94;5043109;28;20025;-72
2023/02/01 04:53:56;;;;;;;18.27;2.85;;;;;;;6.40;100.00;101580.91;5051271;28;20095;-72
2023/02/01 04:56:21;;;;;;;16.23;3.28;;;;;;;6.45;100.00;101580.22;5052805;28;20495;-73
2023/02/01 04:58:47;;;;;;;24.83;2.45;;;;;;;6.34;100.00;101572.75;5054343;28;20077;-72
2023/02/01 05:01:12;;;;;;;21.63;3.25;;;;;;;6.39;100.00;101578.22;5048006;28;20091;-72
2023/02/01 05:03:37;;;;;;;18.55;3.05;;;;;;;6.36;100.00;101573.75;5043268;28;20554;-71
2023/02/01 05:06:04;;;;;;;17.38;2.85;;;;;;;6.36;100.00;101563.28;5056156;28;20477;-72
2023/02/01 05:08:30;;;;;;;14.07;3.17;;;;;;;6.41;100.00;101561.75;5045283;28;20040;-72
2023/02/01 05:10:56;;;;;;;20.33;2.88;;;;;;;6.34;100.00;101575.38;5049601;28;20452;-72
2023/02/01 05:16:06;;;;;;;;;;;;;;;6.30;100.00;101589.13;5038356;28;20152;-72
2023/02/01 05:18:31;;;;;;;15.32;3.38;;;;;;;6.32;100.00;101577.03;5043735;28;19923;-73
2023/02/01 05:20:56;;;;;;;18.77;2.72;;;;;;;6.29;100.00;101587.34;5047051;28;20056;-73
2023/02/01 05:23:22;;;;;;;21.17;3.00;;;;;;;6.26;100.00;101587.22;5073808;28;20146;-73
2023/02/01 05:25:47;;;;;;;13.52;3.00;;;;;;;6.24;100.00;101599.31;5053896;28;20021;-73
2023/02/01 05:28:12;;;;;;;14.70;2.90;;;;;;;6.30;100.00;101604.81;5053735;28;20086;-71
2023/02/01 05:30:38;;;;;;;19.58;2.97;;;;;;;6.33;100.00;101604.94;5052554;28;20511;-72
2023/02/01 05:33:03;;;;;;;19.60;3.00;;;;;;;6.36;100.00;101625.13;5052768;28;20048;-71
2023/02/01 05:35:29;;;;;;;22.20;3.30;;;;;;;6.27;100.00;101604.69;5051691;28;20025;-72
2023/02/01 05:37:54;;;;;;;15.18;3.60;;;;;;;6.31;100.00;101606.63;5055484;28;20035;-71
2023/02/01 05:40:19;;;;;;;24.00;3.25;;;;;;;6.31;100.00;101598.78;5055112;28;20036;-72
2023/02/01 05:42:45;;;;;;;24.77;3.78;;;;;;;6.37;100.00;101585.09;5053190;28;20087;-73
2023/02/01 05:45:11;;;;;;;12.55;2.80;;;;;;;6.37;100.00;101585.97;5064401;28;20025;-72
2023/02/01 05:47:36;;;;;;;20.98;3.55;;;;;;;6.29;100.00;101592.56;5053503;28;20025;-72
2023/02/01 05:50:04;;;;;;;18.85;2.47;;;;;;;6.40;100.00;101588.75;5052666;28;20021;-71
2023/02/01 05:52:29;;;;;;;22.23;3.15;;;;;;;6.38;100.00;101587.75;5053596;28;20052;-73
2023/02/01 05:54:54;;;;;;;22.65;2.90;;;;;;;6.32;100.00;101592.72;5063690;28;20041;-72
2023/02/01 05:57:20;;;;;;;19.20;2.65;;;;;;;6.30;100.00;101604.81;5053806;28;20074;-72
2023/02/01 05:59:45;;;;;;;13.43;2.40;;;;;;;6.32;100.00;101613.63;5056188;28;20108;-73
2023/02/01 06:02:14;;;;;;;13.43;2.60;;;;;;;6.40;100.00;101607.03;5051274;28;20044;-71
2023/02/01 06:04:40;;;;;;;22.95;3.58;;;;;;;6.39;100.00;101609.59;5054304;28;20070;-71
2023/02/01 06:07:07;;;;;;;18.25;2.65;;;;;;;6.37;100.00;101617.34;5041359;28;20627;-72
2023/02/01 06:09:33;;;;;;;16.88;2.90;;;;;;;6.32;100.00;101605.81;5052338;28;20033;-73
2023/02/01 06:11:59;;;;;;;26.83;3.55;;;;;;;6.39;100.00;101605.25;5052252;28;20032;-71
2023/02/01 06:14:24;;;;;;;26.33;3.05;;;;;;;6.40;100.00;101590.44;5057342;28;20037;-72
2023/02/01 06:16:50;;;;;;;23.05;4.07;;;;;;;6.41;100.00;101614.03;5051509;28;20023;-74
2023/02/01 06:19:15;;;;;;;14.95;2.78;;;;;;;6.38;100.00;101593.00;5050468;28;20032;-73
2023/02/01 06:21:41;;;;;;;15.52;3.38;;;;;;;6.40;100.00;101609.66;5056565;28;20552;-72
2023/02/01 06:24:06;;;;;;;14.13;2.45;;;;;;;6.49;100.00;101605.66;5055313;28;20468;-71
2023/02/01 06:26:33;;;;;;;27.40;3.65;;;;;;;6.47;100.00;101604.69;5052834;28;20021;-72
2023/02/01 06:28:58;;;;;;;9.30;2.38;;;;;;;6.44;100.00;101628.09;5051975;28;20039;-71
2023/02/01 06:31:24;;;;;;;26.27;3.40;;;;;;;6.51;100.00;101614.47;5049713;28;20099;-73
2023/02/01 06:33:51;;;;;;;17.85;3.05;;;;;;;6.52;100.00;101616.25;5046569;28;20544;-73
2023/02/01 06:36:18;;;;;;;19.83;3.03;;;;;;;6.50;100.00;101610.09;5049496;28;20582;-73
2023/02/01 06:38:44;;;;;;;14.77;3.05;;;;;;;6.48;100.00;101609.97;5052122;28;20016;-73
2023/02/01 06:41:09;;;;;;;19.08;3.10;;;;;;;6.50;100.00;101610.97;5050888;28;20530;-79
2023/02/01 06:43:35;;;;;;;19.30;3.45;;;;;;;6.51;100.00;101610.16;5048320;28;20052;-73
2023/02/01 06:46:09;;;;;;;19.02;2.92;;;;;;;6.50;100.00;101612.69;5052630;28;20112;-73
2023/02/01 06:48:34;;;;;;;16.75;3.55;;;;;;;6.50;100.00;101607.47;5051546;28;20040;-73
2023/02/01 06:51:00;;;;;;;15.65;3.08;;;;;;;6.50;100.00;101613.59;5041037;28;20028;-73
2023/02/01 06:53:26;;;;;;;20.67;2.92;;;;;;;6.54;100.00;101609.41;5051313;28;20037;-73
2023/02/01 06:55:56;;;;;;;15.75;2.35;;;;;;;6.44;100.00;101601.94;5036492;28;20508;-73
2023/02/01 06:58:22;;;;;;;27.30;3.08;;;;;;;6.45;100.00;101615.09;5043173;28;20082;-72
2023/02/01 07:00:47;;;;;;;16.80;2.65;;;;;;;6.46;100.00;101606.44;5047587;28;20033;-72
2023/02/01 07:03:12;;;;;;;10.93;2.80;;;;;;;6.44;100.00;101613.28;5055561;28;20029;-73
2023/02/01 07:05:38;;;;;;;15.10;3.25;;;;;;;6.48;100.00;101604.75;5059887;28;20107;-72
2023/02/01 07:08:03;;;;;;;17.55;3.05;;;;;;;6.53;100.00;101602.38;5055282;28;20052;-72
2023/02/01 07:10:29;;;;;;;16.73;2.78;;;;;;;6.44;100.00;101604.56;5052680;28;20512;-72
2023/02/01 07:12:57;;;;;;;23.85;2.97;;;;;;;6.49;100.00;101616.13;5052535;28;20025;-72
2023/02/01 07:15:22;;;;;;;14.45;2.30;;;;;;;6.50;100.00;101607.47;5052762;28;20477;-72
2023/02/01 07:17:48;;;;;;;16.77;2.88;;;;;;;6.54;100.00;101625.09;5049444;28;20079;-73
2023/02/01 07:20:16;;;;;;;15.98;3.97;;;;;;;6.49;100.00;101610.91;5051104;28;20082;-73
2023/02/01 07:22:41;;;;;;;18.40;3.15;;;;;;;6.55;100.00;101604.22;5051394;28;20055;-72
2023/02/01 07:25:07;;;;;;;25.98;3.53;;;;;;;6.64;100.00;101611.59;5050427;28;20033;-73
2023/02/01 07:27:36;;;;;;;14.07;3.38;;;;;;;6.55;100.00;101616.38;5047046;28;20079;-73
2023/02/01 07:30:02;;;;;;;25.90;3.03;;;;;;;6.54;100.00;101617.25;5052420;28;20032;-73
2023/02/01 07:32:28;;;;;;;13.82;3.38;;;;;;;6.50;100.00;101633.63;5050044;28;20029;-72
2023/02/01 07:34:54;;;;;;;23.58;2.80;;;;;;;6.64;100.00;101627.28;5046346;28;20542;-73
2023/02/01 07:37:19;;;;;;;16.42;2.55;;;;;;;6.67;100.00;101621.28;5047061;28;20020;-72
2023/02/01 07:39:45;;;;;;;17.85;2.80;;;;;;;6.57;100.00;101631.31;5048378;28;20025;-73
2023/02/01 07:42:10;;;;;;;16.15;3.63;;;;;;;6.66;100.00;101638.72;5045812;28;20021;-73
2023/02/01 07:44:35;;;;;;;16.65;3.13;;;;;;;6.66;100.00;101643.03;5051769;28;20108;-72
2023/02/01 07:47:01;;;;;;;23.13;2.83;;;;;;;6.67;100.00;101640.47;5053175;28;20025;-72
2023/02/01 07:49:26;;;;;;;18.70;3.08;;;;;;;6.53;100.00;101633.75;5054440;28;20035;-72
2023/02/01 07:51:52;;;;;;;27.15;3.92;;;;;;;6.62;100.00;101644.63;5050732;28;20381;-72
2023/02/01 07:54:18;;;;;;;17.20;2.78;;;;;;;6.66;100.00;101646.56;5040998;28;20469;-73
2023/02/01 07:56:43;;;;;;;12.75;2.50;;;;;;;6.62;100.00;101649.88;5046400;28;20023;-72
2023/02/01 07:59:08;;;;;;;25.88;3.08;;;;;;;6.70;100.00;101643.25;5044123;28;20115;-73
2023/02/01 08:01:34;;;;;;;17.88;2.47;;;;;;;6.63;100.00;101643.78;5039758;28;20036;-71
2023/02/01 08:04:02;;;;;;;23.08;3.72;;;;;;;6.65;100.00;101650.00;5051123;28;20067;-72
2023/02/01 08:06:33;;;;;;;19.52;3.40;;;;;;;6.68;100.00;101646.63;5049402;28;20148;-72
2023/02/01 08:08:59;;;;;;;20.33;3.85;;;;;;;6.63;100.00;101650.75;5047307;28;20025;-71
2023/02/01 08:11:25;;;;;;;12.63;2.63;;;;;;;6.80;100.00;101655.03;5046210;28;20135;-73
2023/02/01 08:13:52;;;;;;;24.83;3.35;;;;;;;6.71;100.00;101646.75;5040478;28;20021;-73
2023/02/01 08:16:19;;;;;;;22.35;2.97;;;;;;;6.66;100.00;101632.56;5054566;28;20029;-72
2023/02/01 08:18:45;;;;;;;21.95;3.03;;;;;;;6.69;100.00;101630.13;5050074;28;20048;-73
2023/02/01 08:21:13;;;;;;;20.50;2.65;;;;;;;6.74;100.00;101645.19;5043280;28;20060;-73
2023/02/01 08:23:40;;;;;;;19.33;4.25;;;;;;;6.75;100.00;101638.22;5052827;28;20343;-72
2023/02/01 08:26:11;;;;;;;21.77;2.58;;;;;;;6.74;100.00;101610.28;5049161;28;20028;-73
2023/02/01 08:28:38;;;;;;;26.92;3.72;;;;;;;6.88;100.00;101605.66;5046539;28;20503;-73
2023/02/01 08:31:08;;;;;;;22.60;2.72;;;;;;;6.86;100.00;101604.69;5040715;28;20040;-74
2023/02/01 08:33:35;;;;;;;15.57;2.78;;;;;;;6.86;100.00;101609.94;5046081;28;20025;-73
2023/02/01 08:36:02;;;;;;;20.95;2.90;;;;;;;6.90;100.00;101614.47;5037795;28;20039;-72
2023/02/01 08:38:27;;;;;;;11.70;3.17;;;;;;;6.93;100.00;101609.34;5048716;28;20500;-73
2023/02/01 08:40:53;;;;;;;17.63;2.70;;;;;;;6.96;100.00;101625.22;5049647;28;20162;-72
2023/02/01 08:43:18;;;;;;;22.25;3.10;;;;;;;6.99;100.00;101627.94;5044922;28;20020;-72
2023/02/01 08:45:44;;;;;;;28.38;3.50;;;;;;;6.90;100.00;101630.16;5048422;28;20381;-72
2023/02/01 08:48:09;;;;;;;23.83;3.85;;;;;;;7.12;100.00;101620.63;5053311;28;20021;-73
2023/02/01 08:50:34;;;;;;;17.80;2.40;;;;;;;6.94;100.00;101624.22;5049564;28;20025;-73
2023/02/01 08:53:00;;;;;;;15.77;3.33;;;;;;;6.99;100.00;101614.88;5049972;28;20032;-72
2023/02/01 08:55:26;;;;;;;18.83;2.85;;;;;;;7.11;100.00;101600.50;5053428;28;20021;-72
2023/02/01 08:57:51;;;;;;;23.38;3.22;;;;;;;7.08;100.00;101599.56;5054174;28;20032;-72
2023/02/01 09:00:17;;;;;;;20.58;3.55;;;;;;;7.19;100.00;101606.97;5053204;28;20033;-74
2023/02/01 09:02:43;;;;;;;21.25;2.92;;;;;;;7.31;100.00;101590.91;5057124;28;20367;-74
2023/02/01 09:05:09;;;;;;;21.17;3.72;;;;;;;7.32;100.00;101596.19;5048692;28;20033;-74
2023/02/01 09:07:34;;;;;;;15.25;2.47;;;;;;;7.38;100.00;101595.56;5052427;28;20400;-75
2023/02/01 09:10:00;;;;;;;25.20;3.70;;;;;;;7.46;100.00;101590.66;5053664;28;20036;-75
2023/02/01 09:12:28;;;;;;;16.25;3.28;;;;;;;7.44;100.00;101603.69;5053977;28;20473;-74
2023/02/01 09:14:59;;;;;;;28.23;4.18;;;;;;;7.34;100.00;101591.94;5052812;28;20434;-74
2023/02/01 09:17:28;;;;;;;12.65;2.53;;;;;;;7.36;100.00;101592.88;5052921;28;20716;-75
2023/02/01 09:19:53;;;;;;;23.52;4.43;;;;;;;7.40;100.00;101594.78;5053305;28;20029;-74
2023/02/01 09:22:19;;;;;;;18.83;3.25;;;;;;;7.26;100.00;101583.75;5051844;28;20122;-73
2023/02/01 09:24:44;;;;;;;28.73;4.05;;;;;;;7.26;100.00;101606.44;5054338;28;20035;-73
2023/02/01 09:27:10;;;;;;;14.05;3.20;;;;;;;7.19;100.00;101593.88;5053140;28;20025;-74
2023/02/01 09:29:35;;;;;;;29.30;3.13;;;;;;;7.39;100.00;101597.34;5051240;28;20026;-73
2023/02/01 09:32:01;;;;;;;17.08;2.67;;;;;;;7.33;100.00;101586.63;5043510;28;20317;-74
2023/02/01 09:34:26;;;;;;;24.95;3.78;;;;;;;7.48;100.00;101595.13;5060880;28;20412;-74
2023/02/01 09:36:51;;;;;;;16.10;3.70;;;;;;;7.41;100.00;101609.69;5060296;28;20116;-73
2023/02/01 09:39:17;;;;;;;22.02;3.78;;;;;;;7.34;100.00;101602.41;5059184;28;20052;-75
2023/02/01 09:42:01;;;;;;;31.95;3.05;;;;;;;7.26;100.00;101625.63;5060695;28;20048;-74
2023/02/01 09:44:38;;;;;;;12.70;2.78;;;;;;;7.31;100.00;101628.47;5063426;28;20067;-74
2023/02/01 09:47:03;;;;;;;26.95;4.20;;;;;;;7.32;100.00;101614.53;5052642;28;20029;-73
2023/02/01 09:49:35;;;;;;;30.42;2.90;;;;;;;7.33;100.00;101612.81;5053302;28;20039;-73
2023/02/01 09:52:04;;;;;;;17.38;3.60;;;;;;;7.40;100.00;101614.84;5073526;28;20032;-73
2023/02/01 09:54:46;;;;;;;17.27;3.13;;;;;;;7.16;100.00;101622.56;5074569;28;20384;-72
2023/02/01 09:57:36;;;;;;;14.50;3.20;;;;;;;7.26;100.00;101619.50;5070766;28;20708;-73
2023/02/01 10:00:15;;;;;;;23.83;3.95;;;;;;;7.21;100.00;101606.22;5034726;28;20060;-74
2023/02/01 10:02:48;;;;;;;22.15;3.33;;;;;;;7.16;100.00;101614.69;5041036;28;20393;-73
2023/02/01 10:05:18;;;;;;;29.00;3.33;;;;;;;7.35;100.00;101609.44;5049822;28;20476;-73
2023/02/01 10:08:27;;;;;;;18.02;2.83;;;;;;;7.24;100.00;101622.06;5053046;28;20048;-73
2023/02/01 10:11:02;;;;;;;24.83;4.28;;;;;;;7.19;100.00;101626.22;5062725;28;20044;-74
2023/02/01 10:14:05;;;;;;;15.82;2.55;;;;;;;7.24;100.00;101605.44;5053020;28;20052;-73
2023/02/01 10:16:57;;;;;;;12.82;3.22;;;;;;;7.30;100.00;101613.56;5052161;28;20450;-73
2023/02/01 10:19:47;;;;;;;18.33;3.33;;;;;;;7.26;100.00;101619.50;5041423;28;20447;-73
2023/02/01 10:22:26;;;;;;;17.60;2.75;;;;;;;7.22;100.00;101605.38;5050807;28;20029;-74
2023/02/01 10:24:58;;;;;;;25.42;3.15;;;;;;;7.10;100.00;101625.81;5052752;28;20218;-73
2023/02/01 10:27:37;;;;;;;16.23;3.05;;;;;;;7.16;100.00;101606.84;5053989;28;20465;-74
2023/02/01 10:30:12;;;;;;;23.85;3.20;;;;;;;7.35;100.00;101604.19;5053654;28;20021;-74
2023/02/01 10:32:39;;;;;;;16.30;3.70;;;;;;;7.24;100.00;101608.06;5053613;28;20029;-74
2023/02/01 10:35:31;;;;;;;26.08;3.28;;;;;;;7.40;100.00;101604.38;5051113;28;20021;-73
2023/02/01 10:38:01;;;;;;;20.92;2.88;;;;;;;7.38;100.00;101608.63;5045568;28;20432;-73
2023/02/01 10:40:27;;;;;;;12.43;2.35;;;;;;;7.50;100.00;101608.28;5051069;28;20437;-73
2023/02/01 10:43:02;;;;;;;13.48;3.05;;;;;;;7.56;100.00;101629.47;5047744;28;20109;-72
2023/02/01 10:45:29;;;;;;;14.88;2.60;;;;;;;7.53;100.00;101625.00;5033789;28;20484;-73
2023/02/01 10:47:57;;;;;;;15.27;1.98;;;;;;;7.40;100.00;101612.22;5038101;28;20029;-73
2023/02/01 10:50:44;;;;;;;20.50;3.28;;;;;;;7.37;100.00;101607.75;5053469;28;20020;-74
2023/02/01 10:53:25;;;;;;;12.70;3.28;;;;;;;7.41;100.00;101599.19;5033998;28;20425;-73
2023/02/01 10:55:55;;;;;;;20.98;2.45;;;;;;;7.50;100.00;101603.94;5033725;28;20030;-73
2023/02/01 10:58:31;;;;;;;17.15;2.65;;;;;;;7.42;100.00;101627.19;5033817;28;20527;-73
2023/02/01 11:00:58;;;;;;;17.52;2.88;;;;;;;7.50;100.00;101613.50;5045807;28;20040;-74
2023/02/01 11:03:40;;;;;;;19.05;3.28;;;;;;;7.47;100.00;101613.38;5045618;28;20542;-73
2023/02/01 11:06:17;;;;;;;23.83;3.53;;;;;;;7.41;100.00;101609.69;5047985;28;20049;-73
2023/02/01 11:08:50;;;;;;;21.95;3.25;;;;;;;7.56;100.00;101605.91;5044489;28;20032;-73
2023/02/01 11:11:16;;;;;;;25.73;3.55;;;;;;;7.58;100.00;101601.63;5050227;28;20028;-72
2023/02/01 11:13:42;;;;;;;20.52;3.35;;;;;;;7.43;100.00;101602.78;5051225;28;20044;-74
2023/02/01 11:16:12;;;;;;;17.98;3.67;;;;;;;7.53;100.00;101595.31;5050225;28;20033;-73
2023/02/01 11:18:37;;;;;;;20.23;3.33;;;;;;;7.47;100.00;101603.78;5049375;28;20036;-74
2023/02/01 11:21:05;;;;;;;13.50;2.95;;;;;;;7.65;100.00;101592.28;5051785;28;20392;-73
2023/02/01 11:23:33;;;;;;;10.90;2.72;;;;;;;7.63;100.00;101600.09;5050881;28;20028;-74
2023/02/01 11:26:12;;;;;;;22.27;3.38;;;;;;;7.74;100.00;101601.41;5052160;28;20477;-72
2023/02/01 11:28:44;;;;;;;14.80;2.85;;;;;;;7.69;100.00;101604.69;5063961;28;20068;-72
2023/02/01 11:31:12;;;;;;;23.98;3.15;;;;;;;7.78;100.00;101588.44;5068719;28;20021;-73
2023/02/01 11:33:47;;;;;;;14.70;2.70;;;;;;;7.72;100.00;101584.75;5065020;28;20060;-73
2023/02/01 11:36:17;;;;;;;14.98;2.22;;;;;;;7.85;100.00;101590.47;5053375;28;20031;-73
2023/02/01 11:39:05;;;;;;;18.95;2.90;;;;;;;7.82;100.00;101595.59;5052239;28;20500;-71
2023/02/01 11:41:32;;;;;;;23.55;3.30;;;;;;;7.80;100.00;101584.16;5027748;28;20098;-73
2023/02/01 11:43:59;;;;;;;13.73;2.88;;;;;;;7.84;100.00;101593.91;5044246;28;20027;-72
2023/02/01 11:46:31;;;;;;;14.55;2.83;;;;;;;7.78;100.00;101588.44;5049645;28;20035;-72
2023/02/01 11:49:13;;;;;;;18.27;3.10;;;;;;;7.75;100.00;101597.97;5054506;28;20028;-73
2023/02/01 11:51:38;;;;;;;21.42;1.95;;;;;;;7.69;100.00;101608.22;5051587;28;20021;-72